sensor_id;sensor_type;location;lat;lon;timestamp;pressure;altitude;pressure_sealevel;temperature;humidity
59106;BME280;44891;50.204;8.132;2022-10-31T00:01:25;98658.97;;;11.66;87.90
59106;BME280;44891;50.204;8.132;2022-10-31T00:05:29;98663.69;;;11.53;90.19
59106;BME280;44891;50.204;8.132;2022-10-31T00:09:31;98673.84;;;11.61;90.10
59106;BME280;44891;50.204;8.132;2022-10-31T00:13:33;98680.56;;;11.68;88.96
59106;BME280;44891;50.204;8.132;2022-10-31T00:17:35;98683.78;;;11.70;88.01
59106;BME280;44891;50.204;8.132;2022-10-31T00:21:39;98672.94;;;11.55;88.84
59106;BME280;44891;50.204;8.132;2022-10-31T00:25:41;98673.31;;;11.47;89.47
59106;BME280;44891;50.204;8.132;2022-10-31T00:29:43;98673.19;;;11.54;89.34
59106;BME280;44891;50.204;8.132;2022-10-31T00:33:46;98673.97;;;11.66;89.06
59106;BME280;44891;50.204;8.132;2022-10-31T00:37:53;98677.06;;;11.63;89.40
59106;BME280;44891;50.204;8.132;2022-10-31T00:41:55;98671.03;;;11.51;90.11
59106;BME280;44891;50.204;8.132;2022-10-31T00:45:57;98667.50;;;11.45;89.67
59106;BME280;44891;50.204;8.132;2022-10-31T00:49:59;98670.50;;;11.25;91.42
59106;BME280;44891;50.204;8.132;2022-10-31T00:58:05;98669.22;;;11.28;92.39
59106;BME280;44891;50.204;8.132;2022-10-31T01:02:07;98675.28;;;11.28;93.21
59106;BME280;44891;50.204;8.132;2022-10-31T01:06:12;98668.97;;;11.41;92.96
59106;BME280;44891;50.204;8.132;2022-10-31T01:10:14;98665.53;;;11.52;92.56
59106;BME280;44891;50.204;8.132;2022-10-31T01:14:19;98661.72;;;11.60;91.95
59106;BME280;44891;50.204;8.132;2022-10-31T01:18:21;98666.06;;;11.66;90.16
59106;BME280;44891;50.204;8.132;2022-10-31T01:22:24;98659.91;;;11.60;90.93
59106;BME280;44891;50.204;8.132;2022-10-31T01:26:28;98659.34;;;11.58;90.39
59106;BME280;44891;50.204;8.132;2022-10-31T01:30:33;98653.84;;;11.60;91.33
59106;BME280;44891;50.204;8.132;2022-10-31T01:34:35;98650.50;;;11.64;90.99
59106;BME280;44891;50.204;8.132;2022-10-31T01:38:37;98659.75;;;11.67;91.06
59106;BME280;44891;50.204;8.132;2022-10-31T01:42:39;98664.72;;;11.52;90.66
59106;BME280;44891;50.204;8.132;2022-10-31T01:46:44;98666.81;;;11.50;90.44
59106;BME280;44891;50.204;8.132;2022-10-31T01:50:51;98673.19;;;11.42;90.37
59106;BME280;44891;50.204;8.132;2022-10-31T01:55:03;98668.00;;;11.30;91.33
59106;BME280;44891;50.204;8.132;2022-10-31T01:59:09;98668.66;;;11.49;90.66
59106;BME280;44891;50.204;8.132;2022-10-31T02:03:17;98670.00;;;11.52;91.32
59106;BME280;44891;50.204;8.132;2022-10-31T02:07:25;98657.03;;;11.62;90.00
59106;BME280;44891;50.204;8.132;2022-10-31T02:11:34;98659.00;;;11.55;89.43
59106;BME280;44891;50.204;8.132;2022-10-31T02:15:37;98660.28;;;11.40;89.60
59106;BME280;44891;50.204;8.132;2022-10-31T02:19:47;98642.16;;;11.15;90.14
59106;BME280;44891;50.204;8.132;2022-10-31T02:24:20;98654.38;;;11.22;90.55
59106;BME280;44891;50.204;8.132;2022-10-31T02:28:47;98653.94;;;11.13;91.61
59106;BME280;44891;50.204;8.132;2022-10-31T02:33:06;98649.16;;;10.98;93.66
59106;BME280;44891;50.204;8.132;2022-10-31T02:37:14;98647.78;;;11.07;93.66
59106;BME280;44891;50.204;8.132;2022-10-31T02:41:27;98642.38;;;11.14;94.81
59106;BME280;44891;50.204;8.132;2022-10-31T02:45:45;98636.78;;;11.22;94.26
59106;BME280;44891;50.204;8.132;2022-10-31T02:49:54;98643.66;;;11.23;94.02
59106;BME280;44891;50.204;8.132;2022-10-31T02:53:59;98635.03;;;11.28;94.31
59106;BME280;44891;50.204;8.132;2022-10-31T02:58:04;98640.97;;;11.35;93.51
59106;BME280;44891;50.204;8.132;2022-10-31T03:02:18;98642.38;;;11.37;93.44
59106;BME280;44891;50.204;8.132;2022-10-31T03:06:30;98644.72;;;11.51;92.56
59106;BME280;44891;50.204;8.132;2022-10-31T03:10:38;98639.72;;;11.37;92.00
59106;BME280;44891;50.204;8.132;2022-10-31T03:14:48;98642.25;;;11.32;92.23
59106;BME280;44891;50.204;8.132;2022-10-31T03:18:56;98642.13;;;11.27;91.91
59106;BME280;44891;50.204;8.132;2022-10-31T03:23:03;98639.50;;;11.27;91.26
59106;BME280;44891;50.204;8.132;2022-10-31T03:27:10;98633.03;;;11.18;92.54
59106;BME280;44891;50.204;8.132;2022-10-31T03:31:17;98637.91;;;11.26;93.19
59106;BME280;44891;50.204;8.132;2022-10-31T03:35:24;98637.47;;;11.29;92.69
59106;BME280;44891;50.204;8.132;2022-10-31T03:39:30;98637.22;;;11.31;92.41
59106;BME280;44891;50.204;8.132;2022-10-31T03:43:38;98635.03;;;11.28;92.50
59106;BME280;44891;50.204;8.132;2022-10-31T03:47:43;98638.59;;;11.22;92.57
59106;BME280;44891;50.204;8.132;2022-10-31T03:51:49;98638.84;;;11.20;92.10
59106;BME280;44891;50.204;8.132;2022-10-31T03:56:01;98639.22;;;11.00;91.80
59106;BME280;44891;50.204;8.132;2022-10-31T04:00:08;98628.03;;;10.93;92.21
59106;BME280;44891;50.204;8.132;2022-10-31T04:04:20;98632.94;;;10.89;92.07
59106;BME280;44891;50.204;8.132;2022-10-31T04:08:26;98637.97;;;10.91;92.27
59106;BME280;44891;50.204;8.132;2022-10-31T04:12:33;98639.31;;;10.94;91.99
59106;BME280;44891;50.204;8.132;2022-10-31T04:16:56;98638.53;;;10.81;92.61
59106;BME280;44891;50.204;8.132;2022-10-31T04:21:07;98634.75;;;10.89;92.67
59106;BME280;44891;50.204;8.132;2022-10-31T04:25:09;98640.25;;;10.87;93.74
59106;BME280;44891;50.204;8.132;2022-10-31T04:29:14;98636.47;;;10.95;93.35
59106;BME280;44891;50.204;8.132;2022-10-31T04:33:16;98639.13;;;10.83;93.21
59106;BME280;44891;50.204;8.132;2022-10-31T04:37:20;98634.19;;;10.87;92.84
59106;BME280;44891;50.204;8.132;2022-10-31T04:41:23;98643.56;;;10.83;93.62
59106;BME280;44891;50.204;8.132;2022-10-31T04:45:36;98633.41;;;10.86;94.08
59106;BME280;44891;50.204;8.132;2022-10-31T04:49:39;98629.41;;;10.84;94.42
59106;BME280;44891;50.204;8.132;2022-10-31T04:53:42;98631.91;;;10.91;92.81
59106;BME280;44891;50.204;8.132;2022-10-31T04:58:04;98625.63;;;10.92;92.57
59106;BME280;44891;50.204;8.132;2022-10-31T05:02:09;98623.00;;;10.92;92.82
59106;BME280;44891;50.204;8.132;2022-10-31T05:06:19;98620.38;;;10.92;92.62
59106;BME280;44891;50.204;8.132;2022-10-31T05:10:23;98626.19;;;10.82;92.57
59106;BME280;44891;50.204;8.132;2022-10-31T05:14:26;98623.78;;;10.80;91.82
59106;BME280;44891;50.204;8.132;2022-10-31T05:18:52;98612.59;;;10.73;91.32
59106;BME280;44891;50.204;8.132;2022-10-31T05:23:29;98615.81;;;10.52;92.21
59106;BME280;44891;50.204;8.132;2022-10-31T05:27:32;98617.88;;;10.50;91.63
59106;BME280;44891;50.204;8.132;2022-10-31T05:31:34;98612.94;;;10.42;93.35
59106;BME280;44891;50.204;8.132;2022-10-31T05:35:38;98607.47;;;10.43;94.68
59106;BME280;44891;50.204;8.132;2022-10-31T05:40:00;98611.00;;;10.49;93.77
59106;BME280;44891;50.204;8.132;2022-10-31T05:44:04;98604.38;;;10.34;92.27
59106;BME280;44891;50.204;8.132;2022-10-31T05:48:12;98610.25;;;10.18;93.37
59106;BME280;44891;50.204;8.132;2022-10-31T05:52:54;98610.34;;;10.12;94.89
59106;BME280;44891;50.204;8.132;2022-10-31T05:57:05;98605.81;;;10.19;94.62
59106;BME280;44891;50.204;8.132;2022-10-31T06:01:07;98603.69;;;10.39;93.73
59106;BME280;44891;50.204;8.132;2022-10-31T06:05:09;98600.72;;;10.35;93.90
59106;BME280;44891;50.204;8.132;2022-10-31T06:09:13;98605.97;;;10.24;93.35
59106;BME280;44891;50.204;8.132;2022-10-31T06:13:17;98605.97;;;10.24;92.91
59106;BME280;44891;50.204;8.132;2022-10-31T06:17:26;98604.22;;;10.18;92.98
59106;BME280;44891;50.204;8.132;2022-10-31T06:21:48;98604.94;;;10.25;91.79
59106;BME280;44891;50.204;8.132;2022-10-31T06:25:52;98606.28;;;10.27;91.47
59106;BME280;44891;50.204;8.132;2022-10-31T06:29:54;98605.78;;;10.07;92.28
59106;BME280;44891;50.204;8.132;2022-10-31T06:34:09;98552.44;;;9.71;93.45
59106;BME280;44891;50.204;8.132;2022-10-31T06:38:11;98603.63;;;10.16;95.40
59106;BME280;44891;50.204;8.132;2022-10-31T06:42:18;98606.28;;;10.27;96.58
59106;BME280;44891;50.204;8.132;2022-10-31T06:46:20;98599.13;;;10.34;95.94
59106;BME280;44891;50.204;8.132;2022-10-31T06:50:35;98600.06;;;10.52;93.90
59106;BME280;44891;50.204;8.132;2022-10-31T06:54:37;98597.75;;;10.55;94.05
59106;BME280;44891;50.204;8.132;2022-10-31T06:58:40;98611.13;;;10.66;93.82
59106;BME280;44891;50.204;8.132;2022-10-31T07:02:52;98607.13;;;10.75;92.29
59106;BME280;44891;50.204;8.132;2022-10-31T07:06:57;98609.84;;;10.68;91.58
59106;BME280;44891;50.204;8.132;2022-10-31T07:10:59;98606.78;;;10.71;91.25
59106;BME280;44891;50.204;8.132;2022-10-31T07:15:06;98606.69;;;10.78;90.80
59106;BME280;44891;50.204;8.132;2022-10-31T07:19:08;98601.53;;;10.83;91.68
59106;BME280;44891;50.204;8.132;2022-10-31T07:23:12;98605.41;;;11.04;91.32
59106;BME280;44891;50.204;8.132;2022-10-31T07:27:17;98606.06;;;11.23;90.55
59106;BME280;44891;50.204;8.132;2022-10-31T07:31:24;98611.97;;;11.30;90.97
59106;BME280;44891;50.204;8.132;2022-10-31T07:35:29;98614.34;;;11.43;90.94
59106;BME280;44891;50.204;8.132;2022-10-31T07:39:32;98617.56;;;11.62;89.44
59106;BME280;44891;50.204;8.132;2022-10-31T07:43:35;98612.03;;;11.75;89.30
59106;BME280;44891;50.204;8.132;2022-10-31T07:47:54;98615.13;;;11.84;89.22
59106;BME280;44891;50.204;8.132;2022-10-31T07:52:15;98621.94;;;12.13;89.49
59106;BME280;44891;50.204;8.132;2022-10-31T07:56:20;98621.09;;;12.24;88.38
59106;BME280;44891;50.204;8.132;2022-10-31T08:00:22;98627.72;;;12.44;88.37
59106;BME280;44891;50.204;8.132;2022-10-31T08:04:26;98627.38;;;12.57;88.10
59106;BME280;44891;50.204;8.132;2022-10-31T08:08:47;98628.50;;;12.78;87.51
59106;BME280;44891;50.204;8.132;2022-10-31T08:12:55;98615.50;;;12.93;86.88
59106;BME280;44891;50.204;8.132;2022-10-31T08:16:57;98634.31;;;13.19;86.83
59106;BME280;44891;50.204;8.132;2022-10-31T08:21:09;98627.97;;;13.37;86.37
59106;BME280;44891;50.204;8.132;2022-10-31T08:25:12;98627.94;;;13.58;86.09
59106;BME280;44891;50.204;8.132;2022-10-31T08:29:14;98619.31;;;13.90;84.83
59106;BME280;44891;50.204;8.132;2022-10-31T08:33:18;98622.72;;;14.18;82.43
59106;BME280;44891;50.204;8.132;2022-10-31T08:37:54;98614.56;;;14.51;81.44
59106;BME280;44891;50.204;8.132;2022-10-31T08:42:00;98610.50;;;14.76;79.65
59106;BME280;44891;50.204;8.132;2022-10-31T08:46:03;98611.66;;;14.90;78.51
59106;BME280;44891;50.204;8.132;2022-10-31T08:50:06;98607.88;;;15.28;77.23
59106;BME280;44891;50.204;8.132;2022-10-31T08:54:10;98607.00;;;15.75;75.14
59106;BME280;44891;50.204;8.132;2022-10-31T08:58:31;98599.63;;;16.28;73.25
59106;BME280;44891;50.204;8.132;2022-10-31T09:02:36;98592.97;;;16.30;72.89
59106;BME280;44891;50.204;8.132;2022-10-31T09:06:39;98586.91;;;16.71;71.69
59106;BME280;44891;50.204;8.132;2022-10-31T09:10:43;98591.88;;;16.98;70.09
59106;BME280;44891;50.204;8.132;2022-10-31T09:14:46;98588.56;;;17.26;69.94
59106;BME280;44891;50.204;8.132;2022-10-31T09:19:01;98587.78;;;17.21;70.55
59106;BME280;44891;50.204;8.132;2022-10-31T09:23:05;98583.75;;;17.33;70.15
59106;BME280;44891;50.204;8.132;2022-10-31T09:27:10;98583.91;;;17.57;69.46
59106;BME280;44891;50.204;8.132;2022-10-31T09:31:15;98583.50;;;17.84;67.30
59106;BME280;44891;50.204;8.132;2022-10-31T09:35:26;98577.72;;;17.72;67.09
59106;BME280;44891;50.204;8.132;2022-10-31T09:39:29;98579.47;;;18.26;65.29
59106;BME280;44891;50.204;8.132;2022-10-31T09:43:48;98571.34;;;18.41;64.55
59106;BME280;44891;50.204;8.132;2022-10-31T09:48:03;98572.16;;;18.66;64.25
59106;BME280;44891;50.204;8.132;2022-10-31T09:52:13;98574.81;;;18.71;63.60
59106;BME280;44891;50.204;8.132;2022-10-31T09:56:21;98576.13;;;18.73;63.68
59106;BME280;44891;50.204;8.132;2022-10-31T10:00:25;98563.72;;;18.59;63.81
59106;BME280;44891;50.204;8.132;2022-10-31T10:04:34;98567.88;;;18.41;64.71
59106;BME280;44891;50.204;8.132;2022-10-31T10:08:53;98566.81;;;18.42;64.81
59106;BME280;44891;50.204;8.132;2022-10-31T10:13:41;98561.72;;;18.74;63.87
59106;BME280;44891;50.204;8.132;2022-10-31T10:17:53;98564.38;;;19.22;62.38
59106;BME280;44891;50.204;8.132;2022-10-31T10:22:08;98563.75;;;19.49;61.71
59106;BME280;44891;50.204;8.132;2022-10-31T10:26:17;98561.63;;;19.70;60.65
59106;BME280;44891;50.204;8.132;2022-10-31T10:30:21;98563.34;;;19.42;61.47
59106;BME280;44891;50.204;8.132;2022-10-31T10:34:27;98562.69;;;19.08;63.07
59106;BME280;44891;50.204;8.132;2022-10-31T10:38:36;98565.09;;;18.56;65.31
59106;BME280;44891;50.204;8.132;2022-10-31T10:42:39;98556.03;;;17.99;67.32
59106;BME280;44891;50.204;8.132;2022-10-31T10:46:59;98543.97;;;18.12;68.20
59106;BME280;44891;50.204;8.132;2022-10-31T10:51:28;98547.97;;;18.09;68.10
59106;BME280;44891;50.204;8.132;2022-10-31T10:55:36;98538.09;;;17.81;69.50
59106;BME280;44891;50.204;8.132;2022-10-31T10:59:41;98533.31;;;18.12;68.68
59106;BME280;44891;50.204;8.132;2022-10-31T11:03:43;98527.41;;;18.20;68.65
59106;BME280;44891;50.204;8.132;2022-10-31T11:07:47;98520.84;;;18.65;66.86
59106;BME280;44891;50.204;8.132;2022-10-31T11:11:49;98516.00;;;18.96;66.25
59106;BME280;44891;50.204;8.132;2022-10-31T11:15:57;98504.97;;;18.84;66.62
59106;BME280;44891;50.204;8.132;2022-10-31T11:20:03;98483.66;;;18.60;66.31
59106;BME280;44891;50.204;8.132;2022-10-31T11:24:14;98501.44;;;18.89;66.63
59106;BME280;44891;50.204;8.132;2022-10-31T11:28:16;98496.09;;;18.65;68.04
59106;BME280;44891;50.204;8.132;2022-10-31T11:32:21;98488.84;;;18.76;67.34
59106;BME280;44891;50.204;8.132;2022-10-31T11:36:26;98469.25;;;18.66;68.31
59106;BME280;44891;50.204;8.132;2022-10-31T11:40:30;98475.03;;;18.92;67.83
59106;BME280;44891;50.204;8.132;2022-10-31T11:44:33;98475.97;;;19.01;67.41
59106;BME280;44891;50.204;8.132;2022-10-31T11:48:35;98484.75;;;18.83;67.62
59106;BME280;44891;50.204;8.132;2022-10-31T11:52:39;98482.88;;;18.84;66.84
59106;BME280;44891;50.204;8.132;2022-10-31T11:56:43;98486.19;;;18.94;59.41
59106;BME280;44891;50.204;8.132;2022-10-31T12:00:49;98484.78;;;19.21;58.85
59106;BME280;44891;50.204;8.132;2022-10-31T12:05:00;98475.25;;;19.52;56.67
59106;BME280;44891;50.204;8.132;2022-10-31T12:09:17;98458.47;;;20.03;55.36
59106;BME280;44891;50.204;8.132;2022-10-31T12:13:37;98428.94;;;20.14;55.18
59106;BME280;44891;50.204;8.132;2022-10-31T12:17:43;98448.34;;;20.88;53.24
59106;BME280;44891;50.204;8.132;2022-10-31T12:21:59;98434.06;;;21.42;51.01
59106;BME280;44891;50.204;8.132;2022-10-31T12:26:11;98424.78;;;21.93;49.06
59106;BME280;44891;50.204;8.132;2022-10-31T12:30:21;98417.22;;;21.95;48.80
59106;BME280;44891;50.204;8.132;2022-10-31T12:34:47;98416.31;;;21.69;50.42
59106;BME280;44891;50.204;8.132;2022-10-31T12:39:10;98405.28;;;21.26;49.96
59106;BME280;44891;50.204;8.132;2022-10-31T12:43:28;98405.19;;;21.76;48.73
59106;BME280;44891;50.204;8.132;2022-10-31T12:47:50;98397.72;;;23.00;46.77
59106;BME280;44891;50.204;8.132;2022-10-31T12:52:06;98397.41;;;23.19;46.30
59106;BME280;44891;50.204;8.132;2022-10-31T12:56:22;98395.59;;;22.54;47.91
59106;BME280;44891;50.204;8.132;2022-10-31T13:00:26;98385.75;;;22.89;45.88
59106;BME280;44891;50.204;8.132;2022-10-31T13:04:39;98379.63;;;24.55;43.20
59106;BME280;44891;50.204;8.132;2022-10-31T13:08:46;98366.06;;;23.93;43.14
59106;BME280;44891;50.204;8.132;2022-10-31T13:12:52;98371.41;;;23.93;43.83
59106;BME280;44891;50.204;8.132;2022-10-31T13:16:56;98365.84;;;22.82;45.41
59106;BME280;44891;50.204;8.132;2022-10-31T13:21:03;98351.34;;;21.60;48.20
59106;BME280;44891;50.204;8.132;2022-10-31T13:25:14;98340.88;;;20.82;49.74
59106;BME280;44891;50.204;8.132;2022-10-31T13:29:20;98340.56;;;20.20;52.46
59106;BME280;44891;50.204;8.132;2022-10-31T13:33:27;98341.66;;;19.92;53.60
59106;BME280;44891;50.204;8.132;2022-10-31T13:37:36;98346.88;;;19.83;54.61
59106;BME280;44891;50.204;8.132;2022-10-31T13:41:44;98344.31;;;19.78;56.03
59106;BME280;44891;50.204;8.132;2022-10-31T13:45:51;98343.22;;;19.65;57.58
59106;BME280;44891;50.204;8.132;2022-10-31T13:50:05;98347.34;;;19.58;56.90
59106;BME280;44891;50.204;8.132;2022-10-31T13:54:20;98337.00;;;19.37;57.36
59106;BME280;44891;50.204;8.132;2022-10-31T13:58:25;98342.06;;;19.20;57.05
59106;BME280;44891;50.204;8.132;2022-10-31T14:02:30;98332.25;;;19.01;58.61
59106;BME280;44891;50.204;8.132;2022-10-31T14:06:38;98304.59;;;18.84;60.20
59106;BME280;44891;50.204;8.132;2022-10-31T14:10:48;98299.34;;;18.79;58.94
59106;BME280;44891;50.204;8.132;2022-10-31T14:14:53;98321.31;;;18.65;58.50
59106;BME280;44891;50.204;8.132;2022-10-31T14:18:59;98326.91;;;18.45;59.94
59106;BME280;44891;50.204;8.132;2022-10-31T14:23:35;98310.97;;;18.45;60.75
59106;BME280;44891;50.204;8.132;2022-10-31T14:29:34;98315.38;;;18.12;61.72
59106;BME280;44891;50.204;8.132;2022-10-31T14:33:36;98322.13;;;18.04;62.10
59106;BME280;44891;50.204;8.132;2022-10-31T14:37:53;98307.78;;;18.24;62.75
59106;BME280;44891;50.204;8.132;2022-10-31T14:42:10;98298.09;;;18.52;61.82
59106;BME280;44891;50.204;8.132;2022-10-31T14:46:28;98297.09;;;18.67;60.76
59106;BME280;44891;50.204;8.132;2022-10-31T14:50:47;98282.19;;;18.66;60.92
59106;BME280;44891;50.204;8.132;2022-10-31T14:54:53;98288.84;;;18.50;60.88
59106;BME280;44891;50.204;8.132;2022-10-31T14:59:02;98291.13;;;18.37;61.71
59106;BME280;44891;50.204;8.132;2022-10-31T15:03:13;98275.28;;;18.27;61.88
59106;BME280;44891;50.204;8.132;2022-10-31T15:07:18;98274.31;;;18.23;62.34
59106;BME280;44891;50.204;8.132;2022-10-31T15:11:24;98269.75;;;18.05;62.50
59106;BME280;44891;50.204;8.132;2022-10-31T15:15:26;98265.88;;;17.97;64.08
59106;BME280;44891;50.204;8.132;2022-10-31T15:19:32;98222.94;;;17.61;65.32
59106;BME280;44891;50.204;8.132;2022-10-31T15:23:37;98266.91;;;17.77;64.17
59106;BME280;44891;50.204;8.132;2022-10-31T15:27:40;98264.31;;;17.67;64.27
59106;BME280;44891;50.204;8.132;2022-10-31T15:31:49;98259.22;;;17.47;64.36
59106;BME280;44891;50.204;8.132;2022-10-31T15:35:57;98251.63;;;17.35;66.41
59106;BME280;44891;50.204;8.132;2022-10-31T15:40:07;98223.66;;;17.19;69.54
59106;BME280;44891;50.204;8.132;2022-10-31T15:44:15;98200.50;;;17.00;70.70
59106;BME280;44891;50.204;8.132;2022-10-31T15:48:21;98208.84;;;16.83;71.26
59106;BME280;44891;50.204;8.132;2022-10-31T15:52:29;98195.88;;;16.82;70.82
59106;BME280;44891;50.204;8.132;2022-10-31T15:56:33;98185.84;;;16.79;70.97
59106;BME280;44891;50.204;8.132;2022-10-31T16:00:36;98176.34;;;16.68;70.32
59106;BME280;44891;50.204;8.132;2022-10-31T16:04:48;98145.19;;;16.54;69.58
59106;BME280;44891;50.204;8.132;2022-10-31T16:08:55;98142.16;;;16.66;68.38
59106;BME280;44891;50.204;8.132;2022-10-31T16:13:00;98131.16;;;16.49;66.09
59106;BME280;44891;50.204;8.132;2022-10-31T16:17:03;98158.06;;;16.71;65.80
59106;BME280;44891;50.204;8.132;2022-10-31T16:21:06;98135.53;;;16.64;66.40
59106;BME280;44891;50.204;8.132;2022-10-31T16:25:12;98142.22;;;16.56;67.23
59106;BME280;44891;50.204;8.132;2022-10-31T16:29:27;98142.06;;;16.47;66.83
59106;BME280;44891;50.204;8.132;2022-10-31T16:33:31;98141.88;;;16.39;67.77
59106;BME280;44891;50.204;8.132;2022-10-31T16:37:37;98137.44;;;16.24;70.05
59106;BME280;44891;50.204;8.132;2022-10-31T16:41:41;98137.84;;;16.07;71.08
59106;BME280;44891;50.204;8.132;2022-10-31T16:45:46;98128.63;;;15.99;71.01
59106;BME280;44891;50.204;8.132;2022-10-31T16:49:48;98126.34;;;15.83;72.11
59106;BME280;44891;50.204;8.132;2022-10-31T16:53:52;98118.41;;;15.77;72.30
59106;BME280;44891;50.204;8.132;2022-10-31T16:57:56;98125.66;;;15.51;72.92
59106;BME280;44891;50.204;8.132;2022-10-31T17:02:00;98129.16;;;15.42;73.57
59106;BME280;44891;50.204;8.132;2022-10-31T17:06:03;98121.03;;;15.28;74.37
59106;BME280;44891;50.204;8.132;2022-10-31T17:10:06;98131.91;;;15.11;76.83
59106;BME280;44891;50.204;8.132;2022-10-31T17:14:10;98133.75;;;15.11;75.87
59106;BME280;44891;50.204;8.132;2022-10-31T17:18:13;98134.88;;;15.00;76.34
59106;BME280;44891;50.204;8.132;2022-10-31T17:22:15;98142.56;;;14.71;78.87
59106;BME280;44891;50.204;8.132;2022-10-31T17:26:20;98147.34;;;14.58;79.42
59106;BME280;44891;50.204;8.132;2022-10-31T17:30:25;98153.69;;;14.47;80.17
59106;BME280;44891;50.204;8.132;2022-10-31T17:34:27;98165.31;;;14.56;79.73
59106;BME280;44891;50.204;8.132;2022-10-31T17:38:29;98181.94;;;14.41;80.39
59106;BME280;44891;50.204;8.132;2022-10-31T17:42:31;98173.75;;;14.33;80.84
59106;BME280;44891;50.204;8.132;2022-10-31T17:46:35;98136.19;;;14.05;81.77
59106;BME280;44891;50.204;8.132;2022-10-31T17:50:37;98170.00;;;14.03;82.67
59106;BME280;44891;50.204;8.132;2022-10-31T17:54:39;98163.16;;;14.18;82.56
59106;BME280;44891;50.204;8.132;2022-10-31T17:58:41;98153.13;;;14.20;81.45
59106;BME280;44891;50.204;8.132;2022-10-31T18:02:45;98129.34;;;14.14;81.72
59106;BME280;44891;50.204;8.132;2022-10-31T18:06:47;98134.63;;;14.14;81.95
59106;BME280;44891;50.204;8.132;2022-10-31T18:10:49;98132.25;;;14.08;82.35
59106;BME280;44891;50.204;8.132;2022-10-31T18:14:52;98140.38;;;13.86;82.76
59106;BME280;44891;50.204;8.132;2022-10-31T18:18:56;98137.34;;;13.47;84.83
59106;BME280;44891;50.204;8.132;2022-10-31T18:23:01;98136.56;;;13.41;85.52
59106;BME280;44891;50.204;8.132;2022-10-31T18:27:04;98122.00;;;13.28;86.50
59106;BME280;44891;50.204;8.132;2022-10-31T18:31:07;98127.34;;;13.44;85.17
59106;BME280;44891;50.204;8.132;2022-10-31T18:35:10;98119.97;;;13.51;85.28
59106;BME280;44891;50.204;8.132;2022-10-31T18:39:12;98128.16;;;13.49;84.60
59106;BME280;44891;50.204;8.132;2022-10-31T18:43:14;98148.38;;;13.33;84.98
59106;BME280;44891;50.204;8.132;2022-10-31T18:47:17;98160.91;;;13.11;85.69
59106;BME280;44891;50.204;8.132;2022-10-31T18:51:21;98168.47;;;12.97;86.40
59106;BME280;44891;50.204;8.132;2022-10-31T18:55:24;98170.59;;;12.95;86.81
59106;BME280;44891;50.204;8.132;2022-10-31T18:59:26;98168.91;;;12.84;87.96
59106;BME280;44891;50.204;8.132;2022-10-31T19:03:28;98175.81;;;12.90;87.96
59106;BME280;44891;50.204;8.132;2022-10-31T19:07:32;98169.53;;;12.96;87.39
59106;BME280;44891;50.204;8.132;2022-10-31T19:11:34;98169.22;;;12.88;87.35
59106;BME280;44891;50.204;8.132;2022-10-31T19:15:37;98163.19;;;12.60;87.27
59106;BME280;44891;50.204;8.132;2022-10-31T19:19:40;98164.44;;;12.20;90.23
59106;BME280;44891;50.204;8.132;2022-10-31T19:23:44;98167.31;;;12.46;89.61
59106;BME280;44891;50.204;8.132;2022-10-31T19:27:46;98154.72;;;12.53;88.53
59106;BME280;44891;50.204;8.132;2022-10-31T19:31:48;98121.63;;;12.30;90.18
59106;BME280;44891;50.204;8.132;2022-10-31T19:35:50;98142.31;;;12.48;90.75
59106;BME280;44891;50.204;8.132;2022-10-31T19:39:54;98144.47;;;12.57;91.76
59106;BME280;44891;50.204;8.132;2022-10-31T19:43:58;98144.53;;;12.67;91.03
59106;BME280;44891;50.204;8.132;2022-10-31T19:48:00;98142.16;;;12.65;90.88
59106;BME280;44891;50.204;8.132;2022-10-31T19:52:06;98137.06;;;12.53;90.67
59106;BME280;44891;50.204;8.132;2022-10-31T19:56:19;98142.22;;;12.38;92.95
59106;BME280;44891;50.204;8.132;2022-10-31T20:00:22;98133.84;;;12.41;92.46
59106;BME280;44891;50.204;8.132;2022-10-31T20:04:24;98115.81;;;12.28;92.29
59106;BME280;44891;50.204;8.132;2022-10-31T20:08:26;98132.81;;;12.47;92.67
59106;BME280;44891;50.204;8.132;2022-10-31T20:12:32;98129.81;;;12.34;93.56
59106;BME280;44891;50.204;8.132;2022-10-31T20:16:35;98117.69;;;12.33;93.77
59106;BME280;44891;50.204;8.132;2022-10-31T20:20:37;98100.56;;;11.98;95.99
59106;BME280;44891;50.204;8.132;2022-10-31T20:24:39;98104.03;;;12.04;97.88
59106;BME280;44891;50.204;8.132;2022-10-31T20:28:43;98098.81;;;12.09;98.51
59106;BME280;44891;50.204;8.132;2022-10-31T20:32:45;98109.13;;;12.15;97.97
59106;BME280;44891;50.204;8.132;2022-10-31T20:36:47;98112.97;;;12.03;96.90
59106;BME280;44891;50.204;8.132;2022-10-31T20:40:49;98107.81;;;11.86;96.34
59106;BME280;44891;50.204;8.132;2022-10-31T20:44:53;98095.81;;;11.73;96.54
59106;BME280;44891;50.204;8.132;2022-10-31T20:48:55;98092.91;;;11.75;97.50
59106;BME280;44891;50.204;8.132;2022-10-31T20:52:57;98083.19;;;11.75;97.07
59106;BME280;44891;50.204;8.132;2022-10-31T20:56:59;98083.19;;;11.75;96.03
59106;BME280;44891;50.204;8.132;2022-10-31T21:01:04;98077.91;;;11.70;96.72
59106;BME280;44891;50.204;8.132;2022-10-31T21:05:08;98063.75;;;11.49;99.92
59106;BME280;44891;50.204;8.132;2022-10-31T21:09:10;98066.03;;;11.67;100.00
59106;BME280;44891;50.204;8.132;2022-10-31T21:13:12;98067.53;;;11.85;100.00
59106;BME280;44891;50.204;8.132;2022-10-31T21:17:16;98065.53;;;11.97;100.00
59106;BME280;44891;50.204;8.132;2022-10-31T21:21:20;98045.50;;;11.91;100.00
59106;BME280;44891;50.204;8.132;2022-10-31T21:25:23;98064.25;;;12.00;99.49
59106;BME280;44891;50.204;8.132;2022-10-31T21:29:25;98059.91;;;11.84;98.92
59106;BME280;44891;50.204;8.132;2022-10-31T21:33:28;98061.66;;;11.78;97.78
59106;BME280;44891;50.204;8.132;2022-10-31T21:37:30;98058.50;;;11.76;97.35
59106;BME280;44891;50.204;8.132;2022-10-31T21:41:32;98053.78;;;11.78;98.48
59106;BME280;44891;50.204;8.132;2022-10-31T21:45:34;98053.03;;;11.56;100.00
59106;BME280;44891;50.204;8.132;2022-10-31T21:49:39;98054.09;;;11.60;100.00
59106;BME280;44891;50.204;8.132;2022-10-31T21:53:42;98052.66;;;11.74;97.93